Time;durP1;ratioP1;P1;durP2;ratioP2;P2;SDS_P1;SDS_P2;PMS_P1;PMS_P2;Temp;Humidity;BMP_temperature;BMP_pressure;BME280_temperature;BME280_humidity;BME280_pressure;Samples;Min_cycle;Max_cycle;Signal;HPM_P1;HPM_P2
2022/04/07 00:00:16;;;;;;;;;;;;;;;19.33;49.67;99531.97;2085402;28;20170;-46
2022/04/07 00:01:17;;;;;;;;;;;;;;;19.33;49.59;99537.41;2084574;28;19920;-45
2022/04/07 00:02:17;;;;;;;;;;;;;;;19.33;49.62;99531.97;2082961;28;19920;-46
2022/04/07 00:03:17;;;;;;;;;;;;;;;19.32;49.58;99533.00;2085891;28;19921;-46
2022/04/07 00:04:18;;;;;;;;;;;;;;;19.32;49.52;99533.00;2079233;28;20229;-46
2022/04/07 00:05:18;;;;;;;;;;;;;;;19.32;49.59;99530.25;2081426;28;19974;-46
2022/04/07 00:06:18;;;;;;;;;;;;;;;19.32;49.49;99528.38;2083581;28;19946;-46
2022/04/07 00:07:18;;;;;;;;;;;;;;;19.31;49.61;99521.22;2084287;28;19920;-48
2022/04/07 00:08:19;;;;;;;;;;;;;;;19.32;49.62;99522.06;2081467;28;19908;-46
2022/04/07 00:09:19;;;;;;;;;;;;;;;19.30;49.57;99518.63;2083423;28;19912;-46
2022/04/07 00:10:20;;;;;;;;;;;;;;;19.30;49.58;99518.63;2079116;28;19917;-47
2022/04/07 00:11:21;;;;;;;;;;;;;;;19.30;49.63;99518.63;2085158;28;20135;-46
2022/04/07 00:12:22;;;;;;;;;;;;;;;19.30;49.66;99524.94;2076887;28;19921;-46
2022/04/07 00:13:22;;;;;;;;;;;;;;;19.30;49.65;99513.16;2079005;28;19916;-46
2022/04/07 00:14:22;;;;;;;;;;;;;;;19.30;49.69;99518.63;2083185;28;19916;-47
2022/04/07 00:15:23;;;;;;;;;;;;;;;19.27;49.66;99508.88;2084637;28;19920;-46
2022/04/07 00:16:23;;;;;;;;;;;;;;;19.26;49.77;99508.03;2080433;28;19924;-46
2022/04/07 00:17:23;;;;;;;;;;;;;;;19.26;49.69;99510.78;2081711;28;19928;-47
2022/04/07 00:18:23;;;;;;;;;;;;;;;19.26;49.71;99508.03;2082319;28;20143;-46
2022/04/07 00:19:24;;;;;;;;;;;;;;;19.24;49.75;99504.59;2083336;28;19916;-46
2022/04/07 00:20:26;;;;;;;;;;;;;;;19.25;49.85;99494.53;2082945;28;19920;-46
2022/04/07 00:21:35;;;;;;;;;;;;;;;19.24;49.92;99499.16;2083531;28;20265;-46
2022/04/07 00:22:35;;;;;;;;;;;;;;;19.23;49.88;99502.91;2080667;28;20325;-46
2022/04/07 00:23:36;;;;;;;;;;;;;;;19.23;49.91;99502.91;2084680;28;19908;-46
2022/04/07 00:24:36;;;;;;;;;;;;;;;19.22;49.89;99495.72;2078409;28;19928;-47
2022/04/07 00:25:36;;;;;;;;;;;;;;;19.22;49.87;99498.44;2085107;28;19919;-46
2022/04/07 00:26:37;;;;;;;;;;;;;;;19.22;49.90;99500.34;2081923;28;19920;-46
2022/04/07 00:27:37;;;;;;;;;;;;;;;19.22;49.99;99500.34;2084082;28;19908;-46
2022/04/07 00:28:37;;;;;;;;;;;;;;;19.22;49.91;99505.78;2084282;28;19916;-48
2022/04/07 00:29:38;;;;;;;;;;;;;;;19.21;49.98;99498.63;2082432;28;19920;-47
2022/04/07 00:30:39;;;;;;;;;;;;;;;19.21;49.90;99504.09;2085043;28;19908;-46
2022/04/07 00:31:40;;;;;;;;;;;;;;;19.21;49.90;99504.09;2081414;28;20320;-46
2022/04/07 00:32:43;;;;;;;;;;;;;;;19.20;49.96;99503.22;2084397;28;20003;-46
2022/04/07 00:33:43;;;;;;;;;;;;;;;19.19;49.99;99501.50;2078454;28;19962;-45
2022/04/07 00:34:46;;;;;;;;;;;;;;;19.19;50.03;99501.50;2081290;28;19969;-46
2022/04/07 00:35:46;;;;;;;;;;;;;;;19.18;49.94;99497.09;2085580;28;19908;-47
2022/04/07 00:36:46;;;;;;;;;;;;;;;19.18;50.00;99499.81;2081904;28;19922;-46
2022/04/07 00:37:47;;;;;;;;;;;;;;;19.19;49.92;99493.31;2082947;28;19962;-47
2022/04/07 00:38:47;;;;;;;;;;;;;;;19.18;49.96;99494.34;2083879;28;19916;-47
2022/04/07 00:39:47;;;;;;;;;;;;;;;19.18;50.03;99494.34;2082491;28;20719;-47
2022/04/07 00:40:48;;;;;;;;;;;;;;;19.18;49.99;99494.34;2085971;28;19917;-46
2022/04/07 00:41:48;;;;;;;;;;;;;;;19.18;49.94;99488.88;2076922;28;19921;-47
2022/04/07 00:42:49;;;;;;;;;;;;;;;19.18;50.01;99483.44;2083826;28;20133;-45
2022/04/07 00:43:53;;;;;;;;;;;;;;;19.18;49.94;99490.75;2077478;28;19917;-45
2022/04/07 00:44:53;;;;;;;;;;;;;;;19.18;50.01;99488.88;2080408;28;20301;-46
2022/04/07 00:45:53;;;;;;;;;;;;;;;19.17;50.01;99489.91;2086876;28;19916;-45
2022/04/07 00:46:54;;;;;;;;;;;;;;;19.18;50.07;99485.28;2081852;28;19967;-46
2022/04/07 00:47:54;;;;;;;;;;;;;;;19.17;50.12;99487.16;2082036;28;19950;-45
2022/04/07 00:48:55;;;;;;;;;;;;;;;19.18;49.93;99490.75;2084114;28;19916;-47
2022/04/07 00:49:55;;;;;;;;;;;;;;;19.17;50.04;99495.34;2081354;28;19916;-45
2022/04/07 00:50:56;;;;;;;;;;;;;;;19.16;49.97;99490.94;2080314;28;19952;-45
2022/04/07 00:51:57;;;;;;;;;;;;;;;19.16;50.11;99496.41;2082286;28;19942;-45
2022/04/07 00:52:58;;;;;;;;;;;;;;;19.16;50.06;99499.13;2080047;28;20254;-46
2022/04/07 00:53:59;;;;;;;;;;;;;;;19.15;50.13;99493.81;2083642;28;19912;-46
2022/04/07 00:55:01;;;;;;;;;;;;;;;19.15;50.05;99502.00;2081408;28;20016;-45
2022/04/07 00:56:01;;;;;;;;;;;;;;;19.14;50.11;99500.31;2082846;28;19929;-46
2022/04/07 00:57:02;;;;;;;;;;;;;;;19.13;50.06;99498.59;2073978;28;19991;-46
2022/04/07 00:58:02;;;;;;;;;;;;;;;19.12;50.09;99495.00;2087656;28;20255;-46
2022/04/07 00:59:06;;;;;;;;;;;;;;;19.12;50.11;99503.19;2085004;28;19928;-46
2022/04/07 01:00:07;;;;;;;;;;;;;;;19.12;50.17;99488.69;2084557;28;19917;-45
2022/04/07 01:01:08;;;;;;;;;;;;;;;19.11;50.09;99493.31;2081856;28;19928;-46
2022/04/07 01:02:10;;;;;;;;;;;;;;;19.10;50.09;99497.03;2081549;28;19973;-46
2022/04/07 01:03:10;;;;;;;;;;;;;;;19.10;50.26;99494.31;2079462;28;20331;-46
2022/04/07 01:04:10;;;;;;;;;;;;;;;19.09;50.14;99492.59;2083866;28;19927;-46
2022/04/07 01:05:11;;;;;;;;;;;;;;;19.08;50.16;99493.59;2082643;28;19928;-46
2022/04/07 01:06:11;;;;;;;;;;;;;;;19.08;50.21;99493.59;2081662;28;19931;-45
2022/04/07 01:07:12;;;;;;;;;;;;;;;19.08;50.25;99492.75;2082227;28;20344;-46
2022/04/07 01:08:12;;;;;;;;;;;;;;;19.08;50.13;99490.88;2077662;28;19916;-46
2022/04/07 01:09:14;;;;;;;;;;;;;;;19.09;50.18;99494.47;2082890;28;19931;-46
2022/04/07 01:10:15;;;;;;;;;;;;;;;19.08;50.16;99488.16;2079869;28;19920;-46
2022/04/07 01:11:15;;;;;;;;;;;;;;;19.09;50.15;99483.56;2080458;28;19912;-45
2022/04/07 01:12:15;;;;;;;;;;;;;;;19.07;50.21;99483.72;2079230;28;20220;-45
2022/04/07 01:13:16;;;;;;;;;;;;;;;19.07;50.17;99472.78;2084043;28;19951;-45
2022/04/07 01:14:16;;;;;;;;;;;;;;;19.08;50.07;99471.75;2085512;28;19927;-46
2022/04/07 01:15:17;;;;;;;;;;;;;;;19.07;50.20;99464.59;2079406;28;20012;-45
2022/04/07 01:16:18;;;;;;;;;;;;;;;19.07;50.16;99467.31;2082079;28;20258;-45
2022/04/07 01:17:20;;;;;;;;;;;;;;;19.07;50.29;99475.50;2083218;28;19916;-45
2022/04/07 01:18:21;;;;;;;;;;;;;;;19.06;50.35;99473.81;2082250;28;19920;-45
2022/04/07 01:19:21;;;;;;;;;;;;;;;19.05;50.25;99475.66;2083015;28;19920;-46
2022/04/07 01:20:21;;;;;;;;;;;;;;;19.06;50.30;99473.81;2081786;28;20011;-45
2022/04/07 01:21:22;;;;;;;;;;;;;;;19.05;50.16;99474.81;2081580;28;20286;-46
2022/04/07 01:22:22;;;;;;;;;;;;;;;19.04;50.23;99470.41;2085588;28;20015;-46
2022/04/07 01:23:23;;;;;;;;;;;;;;;19.03;50.25;99463.19;2083071;28;20336;-46
2022/04/07 01:24:29;;;;;;;;;;;;;;;19.03;50.33;99466.81;2081576;28;19925;-46
2022/04/07 01:25:30;;;;;;;;;;;;;;;19.02;50.31;99467.81;2082775;28;19943;-46
2022/04/07 01:26:31;;;;;;;;;;;;;;;19.03;50.46;99479.59;2084093;28;19952;-45
2022/04/07 01:27:32;;;;;;;;;;;;;;;19.01;50.31;99471.56;2083656;28;19928;-45
2022/04/07 01:28:32;;;;;;;;;;;;;;;19.01;50.25;99470.69;2079878;28;20368;-46
2022/04/07 01:29:32;;;;;;;;;;;;;;;19.01;50.34;99470.69;2079093;28;19921;-46
2022/04/07 01:30:34;;;;;;;;;;;;;;;19.00;50.33;99467.13;2080269;28;19924;-47
2022/04/07 01:31:34;;;;;;;;;;;;;;;18.99;50.39;99467.31;2082913;28;20398;-46
2022/04/07 01:32:38;;;;;;;;;;;;;;;18.99;50.42;99472.75;2078845;28;19921;-48
2022/04/07 01:33:38;;;;;;;;;;;;;;;18.98;50.44;99471.88;2078854;28;20584;-45
2022/04/07 01:34:39;;;;;;;;;;;;;;;18.97;50.45;99470.19;2082560;28;19913;-46
2022/04/07 01:35:40;;;;;;;;;;;;;;;18.97;50.44;99469.34;2080880;28;19951;-46
2022/04/07 01:36:41;;;;;;;;;;;;;;;18.97;50.46;99462.00;2081479;28;19919;-46
2022/04/07 01:37:42;;;;;;;;;;;;;;;18.96;50.45;99465.75;2079771;28;19917;-46
2022/04/07 01:38:44;;;;;;;;;;;;;;;18.97;50.43;99463.88;2081786;28;20265;-45
2022/04/07 01:39:44;;;;;;;;;;;;;;;18.96;50.43;99462.16;2082809;28;19938;-45
2022/04/07 01:40:46;;;;;;;;;;;;;;;18.97;50.34;99463.88;2079597;28;20249;-45
2022/04/07 01:41:46;;;;;;;;;;;;;;;18.97;50.44;99466.59;2082718;28;20708;-45
2022/04/07 01:42:48;;;;;;;;;;;;;;;18.97;50.46;99463.88;2079875;28;20399;-45
2022/04/07 01:43:54;;;;;;;;;;;;;;;18.97;50.43;99459.25;2078408;28;20219;-46
2022/04/07 01:44:57;;;;;;;;;;;;;;;18.98;50.39;99462.84;2082227;28;20003;-47
2022/04/07 01:45:57;;;;;;;;;;;;;;;18.99;50.39;99464.56;2083274;28;19937;-45
2022/04/07 01:46:58;;;;;;;;;;;;;;;18.99;50.34;99467.31;2080543;28;19935;-46
2022/04/07 01:47:59;;;;;;;;;;;;;;;19.00;50.33;99469.00;2075911;28;19916;-46
2022/04/07 01:49:00;;;;;;;;;;;;;;;19.02;50.34;99472.44;2080017;28;20309;-47
2022/04/07 01:50:04;;;;;;;;;;;;;;;19.00;50.35;99469.00;2083160;28;19921;-46
2022/04/07 01:51:05;;;;;;;;;;;;;;;19.01;50.22;99460.66;2079966;28;20335;-46
2022/04/07 01:52:07;;;;;;;;;;;;;;;19.02;50.22;99464.22;2080098;28;19921;-46
2022/04/07 01:53:08;;;;;;;;;;;;;;;19.02;50.32;99461.50;2083696;28;19991;-47
2022/04/07 01:54:11;;;;;;;;;;;;;;;19.01;50.24;99466.13;2079444;28;19924;-47
2022/04/07 01:55:15;;;;;;;;;;;;;;;19.00;50.16;99464.38;2084236;28;20152;-46
2022/04/07 01:56:16;;;;;;;;;;;;;;;19.03;50.20;99463.19;2077131;28;20260;-45
2022/04/07 01:57:20;;;;;;;;;;;;;;;19.05;50.17;99467.47;2081987;28;21080;-46
2022/04/07 01:58:20;;;;;;;;;;;;;;;19.05;50.22;99472.09;2083521;28;19984;-44
2022/04/07 01:59:21;;;;;;;;;;;;;;;19.05;50.19;99461.16;2079858;28;20148;-46
2022/04/07 02:00:22;;;;;;;;;;;;;;;19.05;50.23;99458.44;2082746;28;19916;-46
2022/04/07 02:01:22;;;;;;;;;;;;;;;19.06;50.14;99462.91;2078163;28;20312;-58
2022/04/07 02:02:22;;;;;;;;;;;;;;;19.08;50.17;99459.97;2082701;28;19955;-57
2022/04/07 02:03:23;;;;;;;;;;;;;;;19.07;50.09;99461.84;2075605;28;19917;-57
2022/04/07 02:04:23;;;;;;;;;;;;;;;19.06;50.14;99462.91;2083861;28;20246;-57
2022/04/07 02:05:23;;;;;;;;;;;;;;;19.05;50.13;99461.16;2076296;28;20235;-58
2022/04/07 02:06:25;;;;;;;;;;;;;;;19.05;50.04;99455.69;2075933;28;19963;-58
2022/04/07 02:07:29;;;;;;;;;;;;;;;19.03;50.18;99458.63;2079016;28;20006;-57
2022/04/07 02:08:29;;;;;;;;;;;;;;;19.03;50.12;99464.06;2082459;28;20003;-58
2022/04/07 02:09:33;;;;;;;;;;;;;;;19.02;50.07;99462.34;2082114;28;19916;-58
2022/04/07 02:10:33;;;;;;;;;;;;;;;19.03;50.15;99455.00;2081227;28;19912;-58
2022/04/07 02:11:35;;;;;;;;;;;;;;;19.02;50.16;99456.03;2079871;28;19920;-57
2022/04/07 02:12:37;;;;;;;;;;;;;;;19.02;50.17;99456.03;2080767;28;20763;-56
2022/04/07 02:13:38;;;;;;;;;;;;;;;19.02;50.25;99456.03;2079460;28;19920;-57
2022/04/07 02:14:39;;;;;;;;;;;;;;;19.01;50.23;99448.84;2080576;28;19959;-57
2022/04/07 02:15:39;;;;;;;;;;;;;;;19.02;50.25;99445.13;2082723;28;19958;-57
2022/04/07 02:16:39;;;;;;;;;;;;;;;19.01;50.29;99432.47;2079149;28;20046;-57
2022/04/07 02:17:40;;;;;;;;;;;;;;;19.02;50.28;99439.66;2080800;28;20285;-57
2022/04/07 02:18:40;;;;;;;;;;;;;;;19.02;50.36;99436.91;2077778;28;19905;-57
2022/04/07 02:19:41;;;;;;;;;;;;;;;19.01;50.37;99440.66;2076773;28;19924;-57
2022/04/07 02:20:41;;;;;;;;;;;;;;;19.02;50.18;99439.66;2079168;28;19917;-57
2022/04/07 02:21:41;;;;;;;;;;;;;;;19.01;50.32;99437.91;2079565;28;19919;-58
2022/04/07 02:22:42;;;;;;;;;;;;;;;19.02;50.37;99439.66;2082515;28;20366;-57
2022/04/07 02:23:42;;;;;;;;;;;;;;;19.01;50.31;99429.72;2078858;28;19916;-57
2022/04/07 02:24:43;;;;;;;;;;;;;;;19.00;50.22;99437.06;2079279;28;19948;-57
2022/04/07 02:25:43;;;;;;;;;;;;;;;18.99;50.23;99434.53;2081255;28;20239;-57
2022/04/07 02:26:44;;;;;;;;;;;;;;;19.00;50.25;99436.22;2082150;28;19921;-57
2022/04/07 02:27:44;;;;;;;;;;;;;;;18.99;50.21;99434.53;2081309;28;19917;-57
2022/04/07 02:28:45;;;;;;;;;;;;;;;18.99;50.33;99437.25;2082782;28;19927;-57
2022/04/07 02:29:45;;;;;;;;;;;;;;;18.98;50.27;99438.25;2080346;28;20753;-57
2022/04/07 02:30:46;;;;;;;;;;;;;;;18.97;50.38;99439.28;2080382;28;19971;-57
2022/04/07 02:31:46;;;;;;;;;;;;;;;18.97;50.33;99442.03;2080471;28;19920;-58
2022/04/07 02:32:48;;;;;;;;;;;;;;;18.96;50.34;99443.91;2078761;28;19920;-57
2022/04/07 02:33:48;;;;;;;;;;;;;;;18.96;50.41;99445.75;2080758;28;20246;-57
2022/04/07 02:34:48;;;;;;;;;;;;;;;18.94;50.37;99445.09;2079767;28;19920;-57
2022/04/07 02:35:50;;;;;;;;;;;;;;;18.95;50.38;99438.59;2078059;28;20259;-57
2022/04/07 02:36:50;;;;;;;;;;;;;;;18.94;50.27;99442.38;2077212;28;19979;-57
2022/04/07 02:37:51;;;;;;;;;;;;;;;18.94;50.39;99447.81;2078387;28;20357;-57
2022/04/07 02:38:51;;;;;;;;;;;;;;;18.92;50.28;99441.66;2081180;28;19925;-57
2022/04/07 02:39:52;;;;;;;;;;;;;;;18.92;50.41;99434.31;2079991;28;19924;-57
2022/04/07 02:40:53;;;;;;;;;;;;;;;18.92;50.47;99444.41;2081926;28;19924;-57
2022/04/07 02:41:53;;;;;;;;;;;;;;;18.92;50.40;99444.41;2077837;28;20736;-56
2022/04/07 02:42:54;;;;;;;;;;;;;;;18.92;50.41;99433.47;2083204;28;19920;-57
2022/04/07 02:43:55;;;;;;;;;;;;;;;18.92;50.39;99438.94;2081471;28;19927;-57
2022/04/07 02:44:55;;;;;;;;;;;;;;;18.93;50.44;99435.16;2079173;28;19975;-57
2022/04/07 02:45:56;;;;;;;;;;;;;;;18.93;50.24;99438.75;2082366;28;20256;-57
2022/04/07 02:46:56;;;;;;;;;;;;;;;18.94;50.38;99436.91;2078596;28;19927;-57
2022/04/07 02:47:57;;;;;;;;;;;;;;;18.94;50.19;99443.22;2080699;28;19928;-57
2022/04/07 02:48:57;;;;;;;;;;;;;;;18.94;50.37;99440.47;2079396;28;19931;-54
2022/04/07 02:49:58;;;;;;;;;;;;;;;18.94;50.37;99431.44;2082794;28;19924;-53
2022/04/07 02:50:58;;;;;;;;;;;;;;;18.93;50.28;99432.44;2080509;28;19932;-54
2022/04/07 02:51:58;;;;;;;;;;;;;;;18.94;50.26;99428.72;2081525;28;19931;-54
2022/04/07 02:52:59;;;;;;;;;;;;;;;18.95;50.30;99433.13;2081258;28;19924;-54
2022/04/07 02:53:59;;;;;;;;;;;;;;;18.94;50.24;99431.44;2080658;28;19926;-53
2022/04/07 02:54:59;;;;;;;;;;;;;;;18.94;50.31;99435.00;2083047;28;20321;-53
2022/04/07 02:56:00;;;;;;;;;;;;;;;18.93;50.24;99430.56;2079578;28;19932;-54
2022/04/07 02:57:00;;;;;;;;;;;;;;;18.94;50.28;99432.28;2084797;28;19947;-54
2022/04/07 02:58:01;;;;;;;;;;;;;;;18.94;50.31;99431.44;2084446;28;19979;-54
2022/04/07 02:59:02;;;;;;;;;;;;;;;18.93;50.32;99430.56;2084414;28;20021;-53
2022/04/07 03:00:05;;;;;;;;;;;;;;;18.93;50.21;99424.25;2078943;28;19925;-53
2022/04/07 03:01:06;;;;;;;;;;;;;;;18.92;50.21;99428.84;2083104;28;20705;-53
2022/04/07 03:02:06;;;;;;;;;;;;;;;18.91;50.10;99432.59;2095679;27;19927;-49
2022/04/07 03:03:07;;;;;;;;;;;;;;;18.91;50.27;99429.00;2096528;27;19912;-49
2022/04/07 03:04:07;;;;;;;;;;;;;;;18.91;50.25;99426.28;2081524;28;20023;-54
2022/04/07 03:05:07;;;;;;;;;;;;;;;18.90;50.29;99422.69;2081919;28;20253;-51
2022/04/07 03:06:08;;;;;;;;;;;;;;;18.89;50.26;99422.84;2081532;28;20192;-50
2022/04/07 03:07:08;;;;;;;;;;;;;;;18.89;50.32;99428.31;2081468;28;19912;-49
2022/04/07 03:08:08;;;;;;;;;;;;;;;18.89;50.24;99431.03;2081170;28;19998;-50
2022/04/07 03:09:09;;;;;;;;;;;;;;;18.88;50.32;99427.47;2082229;28;19920;-53
2022/04/07 03:10:10;;;;;;;;;;;;;;;18.89;50.26;99428.31;2079119;28;19927;-54
2022/04/07 03:11:10;;;;;;;;;;;;;;;18.88;50.24;99434.81;2081449;28;19927;-54
2022/04/07 03:12:11;;;;;;;;;;;;;;;18.87;50.25;99424.91;2082738;28;19920;-50
2022/04/07 03:13:12;;;;;;;;;;;;;;;18.87;50.25;99419.47;2080510;28;19943;-47
2022/04/07 03:14:13;;;;;;;;;;;;;;;18.87;50.29;99422.19;2085313;28;19913;-47
2022/04/07 03:15:13;;;;;;;;;;;;;;;18.85;50.29;99423.19;2081631;28;20257;-47
2022/04/07 03:16:13;;;;;;;;;;;;;;;18.82;50.30;99418.06;2082248;28;19935;-47
2022/04/07 03:17:14;;;;;;;;;;;;;;;18.80;50.33;99420.09;2084534;28;19921;-46
2022/04/07 03:18:14;;;;;;;;;;;;;;;18.80;50.37;99420.09;2082441;28;19973;-48
2022/04/07 03:19:16;;;;;;;;;;;;;;;18.79;50.44;99420.25;2086033;28;19975;-46
2022/04/07 03:20:16;;;;;;;;;;;;;;;18.78;50.43;99422.13;2084240;28;19920;-47
2022/04/07 03:21:17;;;;;;;;;;;;;;;18.78;50.50;99422.13;2081464;28;20004;-46
2022/04/07 03:22:18;;;;;;;;;;;;;;;18.78;50.45;99430.31;2085002;28;19920;-46
2022/04/07 03:23:19;;;;;;;;;;;;;;;18.78;50.45;99424.03;2081045;28;19928;-46
2022/04/07 03:24:19;;;;;;;;;;;;;;;18.77;50.46;99422.31;2082275;28;19913;-47
2022/04/07 03:25:19;;;;;;;;;;;;;;;18.76;50.54;99432.34;2083441;28;19935;-46
2022/04/07 03:26:20;;;;;;;;;;;;;;;18.75;50.54;99425.16;2083155;28;19913;-46
2022/04/07 03:27:20;;;;;;;;;;;;;;;18.75;50.54;99427.06;2081732;28;20587;-46
2022/04/07 03:28:20;;;;;;;;;;;;;;;18.75;50.55;99425.16;2080448;28;19927;-46
2022/04/07 03:29:21;;;;;;;;;;;;;;;18.74;50.52;99423.47;2085723;28;19920;-47
2022/04/07 03:30:21;;;;;;;;;;;;;;;18.74;50.54;99426.19;2080836;28;19920;-46
2022/04/07 03:31:21;;;;;;;;;;;;;;;18.73;50.69;99429.09;2079732;28;19928;-46
2022/04/07 03:32:22;;;;;;;;;;;;;;;18.73;50.58;99424.47;2079620;28;20011;-46
2022/04/07 03:33:22;;;;;;;;;;;;;;;18.73;50.61;99434.53;2081563;28;20159;-46
2022/04/07 03:34:22;;;;;;;;;;;;;;;18.71;50.63;99426.50;2079682;28;19909;-47
2022/04/07 03:35:23;;;;;;;;;;;;;;;18.71;50.62;99429.22;2082170;28;20156;-46
2022/04/07 03:36:24;;;;;;;;;;;;;;;18.71;50.73;99425.66;2078584;28;20413;-46
2022/04/07 03:37:24;;;;;;;;;;;;;;;18.71;50.58;99425.66;2079807;28;19960;-46
2022/04/07 03:38:24;;;;;;;;;;;;;;;18.69;50.65;99428.56;2081301;28;19986;-47
2022/04/07 03:39:24;;;;;;;;;;;;;;;18.70;50.60;99427.53;2083269;28;19921;-46
2022/04/07 03:40:28;;;;;;;;;;;;;;;18.67;50.59;99422.41;2080803;28;19920;-48
2022/04/07 03:41:29;;;;;;;;;;;;;;;18.70;50.67;99434.88;2081887;28;20023;-47
2022/04/07 03:42:29;;;;;;;;;;;;;;;18.68;50.66;99432.31;2078072;28;19919;-48
2022/04/07 03:43:29;;;;;;;;;;;;;;;18.67;50.62;99430.59;2077315;28;19924;-48
2022/04/07 03:44:30;;;;;;;;;;;;;;;18.68;50.60;99420.53;2089901;28;19957;-46
2022/04/07 03:45:30;;;;;;;;;;;;;;;18.67;50.58;99419.69;2084109;28;20119;-49
2022/04/07 03:46:30;;;;;;;;;;;;;;;18.68;50.68;99421.38;2082360;28;19970;-46
2022/04/07 03:47:31;;;;;;;;;;;;;;;18.67;50.65;99425.16;2080488;28;19927;-47
2022/04/07 03:48:31;;;;;;;;;;;;;;;18.67;50.67;99414.22;2085132;28;19920;-47
2022/04/07 03:49:32;;;;;;;;;;;;;;;18.68;50.66;99426.00;2079405;28;20003;-46
2022/04/07 03:50:32;;;;;;;;;;;;;;;18.67;50.59;99419.69;2080944;28;19924;-46
2022/04/07 03:51:32;;;;;;;;;;;;;;;18.67;50.57;99414.22;2082213;28;19916;-46
2022/04/07 03:52:33;;;;;;;;;;;;;;;18.68;50.49;99415.91;2080806;28;20551;-46
2022/04/07 03:53:33;;;;;;;;;;;;;;;18.69;50.69;99411.31;2080153;28;20254;-46
2022/04/07 03:54:33;;;;;;;;;;;;;;;18.68;50.59;99418.66;2080040;28;19924;-46
2022/04/07 03:55:34;;;;;;;;;;;;;;;18.69;50.52;99423.09;2082335;28;20011;-46
2022/04/07 03:56:34;;;;;;;;;;;;;;;18.70;50.55;99419.34;2078643;28;19924;-47
2022/04/07 03:57:35;;;;;;;;;;;;;;;18.71;50.59;99425.66;2081770;28;19924;-47
2022/04/07 03:58:35;;;;;;;;;;;;;;;18.71;50.48;99423.78;2079353;28;19920;-46
2022/04/07 03:59:38;;;;;;;;;;;;;;;18.71;50.45;99426.50;2081076;28;20313;-47
2022/04/07 04:00:38;;;;;;;;;;;;;;;18.72;50.35;99422.78;2079913;28;19972;-46
2022/04/07 04:01:40;;;;;;;;;;;;;;;18.73;50.38;99429.94;2082745;28;19927;-47
2022/04/07 04:02:40;;;;;;;;;;;;;;;18.72;50.40;99422.78;2079627;28;19924;-48
2022/04/07 04:03:41;;;;;;;;;;;;;;;18.73;50.42;99424.47;2084966;28;20395;-46
2022/04/07 04:04:41;;;;;;;;;;;;;;;18.74;50.45;99436.25;2079284;28;19952;-46
2022/04/07 04:05:41;;;;;;;;;;;;;;;18.74;50.39;99430.78;2083110;28;19920;-47
2022/04/07 04:06:42;;;;;;;;;;;;;;;18.75;50.36;99425.16;2082348;28;20357;-46
2022/04/07 04:07:42;;;;;;;;;;;;;;;18.76;50.27;99429.63;2080771;28;20735;-48
2022/04/07 04:08:42;;;;;;;;;;;;;;;18.77;50.24;99427.78;2081689;28;19923;-47
2022/04/07 04:09:45;;;;;;;;;;;;;;;18.79;50.23;99426.59;2078922;28;20313;-46
2022/04/07 04:10:46;;;;;;;;;;;;;;;18.80;50.24;99430.19;2080481;28;19920;-46
2022/04/07 04:11:46;;;;;;;;;;;;;;;18.82;50.25;99423.53;2078100;28;19963;-47
2022/04/07 04:12:46;;;;;;;;;;;;;;;18.83;50.16;99419.75;2079139;28;20239;-46
2022/04/07 04:13:47;;;;;;;;;;;;;;;18.85;50.08;99419.63;2079243;28;20405;-46
2022/04/07 04:14:47;;;;;;;;;;;;;;;18.86;49.98;99424.03;2078179;28;19921;-46
2022/04/07 04:15:47;;;;;;;;;;;;;;;18.87;50.00;99419.47;2077185;28;20530;-47
2022/04/07 04:16:47;;;;;;;;;;;;;;;18.87;50.00;99420.31;2083586;28;19948;-46
2022/04/07 04:17:48;;;;;;;;;;;;;;;18.88;50.03;99423.88;2076921;28;20025;-47
2022/04/07 04:18:48;;;;;;;;;;;;;;;18.88;50.08;99413.81;2082707;28;20140;-46
2022/04/07 04:19:48;;;;;;;;;;;;;;;18.89;49.92;99411.94;2079298;28;19921;-46
2022/04/07 04:20:48;;;;;;;;;;;;;;;18.89;49.99;99411.94;2084231;28;20683;-47
2022/04/07 04:21:50;;;;;;;;;;;;;;;18.89;50.01;99417.41;2078088;28;20314;-46
2022/04/07 04:22:53;;;;;;;;;;;;;;;18.88;50.01;99413.81;2082595;28;20193;-46
2022/04/07 04:23:53;;;;;;;;;;;;;;;18.89;50.06;99406.47;2083927;28;19926;-46
2022/04/07 04:24:54;;;;;;;;;;;;;;;18.89;49.95;99412.81;2080501;28;19921;-47
2022/04/07 04:25:54;;;;;;;;;;;;;;;18.89;50.03;99407.34;2098448;27;19949;-45
2022/04/07 04:26:54;;;;;;;;;;;;;;;18.89;49.99;99414.66;2098123;27;20334;-46
2022/04/07 04:27:55;;;;;;;;;;;;;;;18.89;50.06;99409.19;2078910;28;19927;-46
2022/04/07 04:28:55;;;;;;;;;;;;;;;18.89;49.92;99403.75;2077124;28;19923;-46
2022/04/07 04:29:56;;;;;;;;;;;;;;;18.88;50.02;99399.31;2084030;28;20397;-46
2022/04/07 04:30:56;;;;;;;;;;;;;;;18.89;49.88;99403.75;2081802;28;19920;-47
2022/04/07 04:31:56;;;;;;;;;;;;;;;18.88;49.88;99402.88;2083124;28;20483;-48
2022/04/07 04:32:57;;;;;;;;;;;;;;;18.89;50.03;99403.75;2080169;28;20657;-46
2022/04/07 04:33:57;;;;;;;;;;;;;;;18.87;49.95;99393.00;2079939;28;19925;-46
2022/04/07 04:34:57;;;;;;;;;;;;;;;18.85;50.12;99395.88;2078742;28;19956;-46
2022/04/07 04:35:59;;;;;;;;;;;;;;;18.87;49.95;99394.88;2075758;28;20184;-47
2022/04/07 04:36:59;;;;;;;;;;;;;;;18.84;50.02;99399.66;2083105;28;19917;-46
2022/04/07 04:37:59;;;;;;;;;;;;;;;18.85;50.08;99401.34;2083589;28;20319;-47
2022/04/07 04:39:00;;;;;;;;;;;;;;;18.85;49.90;99395.03;2080676;28;20321;-47
2022/04/07 04:40:00;;;;;;;;;;;;;;;18.84;50.06;99405.09;2082247;28;19928;-47
2022/04/07 04:41:00;;;;;;;;;;;;;;;18.83;50.11;99408.84;2078110;28;19921;-46
2022/04/07 04:42:00;;;;;;;;;;;;;;;18.83;49.94;99408.00;2083000;28;20809;-47
2022/04/07 04:43:01;;;;;;;;;;;;;;;18.83;49.95;99414.31;2082184;28;19956;-46
2022/04/07 04:44:01;;;;;;;;;;;;;;;18.83;50.06;99408.00;2082642;28;19947;-46
2022/04/07 04:45:01;;;;;;;;;;;;;;;18.82;50.09;99412.59;2079836;28;19921;-47
2022/04/07 04:46:02;;;;;;;;;;;;;;;18.82;50.04;99407.16;2082503;28;20147;-47
2022/04/07 04:47:02;;;;;;;;;;;;;;;18.82;50.07;99411.75;2080199;28;20450;-47
2022/04/07 04:48:02;;;;;;;;;;;;;;;18.82;50.01;99406.31;2085598;28;19924;-47
2022/04/07 04:49:03;;;;;;;;;;;;;;;18.83;50.00;99408.84;2085997;28;19920;-47
2022/04/07 04:50:05;;;;;;;;;;;;;;;18.83;50.11;99411.56;2080073;28;20170;-46
2022/04/07 04:51:05;;;;;;;;;;;;;;;18.85;49.96;99417.72;2081386;28;20260;-46
2022/04/07 04:52:05;;;;;;;;;;;;;;;18.85;49.95;99414.16;2081720;28;20263;-47
2022/04/07 04:53:06;;;;;;;;;;;;;;;18.84;50.06;99416.03;2079136;28;20031;-47
2022/04/07 04:54:06;;;;;;;;;;;;;;;18.87;50.01;99411.28;2083577;28;19920;-47
2022/04/07 04:55:07;;;;;;;;;;;;;;;18.87;49.92;99414.00;2081773;28;20280;-47
2022/04/07 04:56:07;;;;;;;;;;;;;;;18.88;50.00;99412.97;2082836;28;20837;-49
2022/04/07 04:57:07;;;;;;;;;;;;;;;18.88;50.01;99410.22;2082939;28;20011;-46
2022/04/07 04:58:08;;;;;;;;;;;;;;;18.90;49.96;99413.66;2083840;28;19920;-46
2022/04/07 04:59:08;;;;;;;;;;;;;;;18.90;49.97;99408.19;2083568;28;19963;-47
2022/04/07 05:00:08;;;;;;;;;;;;;;;18.91;49.91;99415.34;2081875;28;19927;-47
2022/04/07 05:01:09;;;;;;;;;;;;;;;18.92;49.76;99411.63;2080948;28;20656;-46
2022/04/07 05:02:09;;;;;;;;;;;;;;;18.92;49.90;99411.63;2083214;28;19927;-47
2022/04/07 05:03:09;;;;;;;;;;;;;;;18.93;49.91;99410.59;2077640;28;19920;-47
2022/04/07 05:04:10;;;;;;;;;;;;;;;18.94;49.96;99409.59;2083450;28;19952;-48
2022/04/07 05:05:11;;;;;;;;;;;;;;;18.93;49.95;99413.31;2081692;28;19921;-47
2022/04/07 05:06:12;;;;;;;;;;;;;;;18.93;49.87;99419.63;2079489;28;20230;-46
2022/04/07 05:07:12;;;;;;;;;;;;;;;18.93;49.78;99407.84;2085378;28;19920;-47
2022/04/07 05:08:12;;;;;;;;;;;;;;;18.93;49.74;99407.84;2081008;28;19931;-49
2022/04/07 05:09:12;;;;;;;;;;;;;;;18.93;50.05;99414.16;2082314;28;19926;-50
2022/04/07 05:10:13;;;;;;;;;;;;;;;18.93;49.90;99410.59;2077107;28;19996;-46
2022/04/07 05:11:13;;;;;;;;;;;;;;;18.92;49.81;99417.09;2083076;28;19951;-47
2022/04/07 05:12:13;;;;;;;;;;;;;;;18.92;49.93;99411.63;2083182;28;19992;-47
2022/04/07 05:13:14;;;;;;;;;;;;;;;18.92;49.92;99406.16;2083128;28;19936;-49
2022/04/07 05:14:14;;;;;;;;;;;;;;;18.92;49.87;99408.91;2082605;28;19920;-49
2022/04/07 05:15:14;;;;;;;;;;;;;;;18.90;49.92;99406.31;2081145;28;20127;-47
2022/04/07 05:16:15;;;;;;;;;;;;;;;18.91;49.97;99409.91;2083757;28;19924;-46